createdAt,value
2017-10-18T00:02:13.256Z,44.10
2017-10-18T00:04:42.494Z,38.10
2017-10-18T00:07:11.708Z,42.27
2017-10-18T00:09:40.972Z,41.97
2017-10-18T00:12:10.184Z,50.47
2017-10-18T00:14:40.176Z,41.83
2017-10-18T00:17:09.380Z,37.87
2017-10-18T00:19:38.589Z,38.43
2017-10-18T00:22:07.827Z,49.33
2017-10-18T00:24:37.033Z,36.90
2017-10-18T00:27:06.289Z,37.27
2017-10-18T00:29:35.613Z,42.57
2017-10-18T00:32:04.853Z,39.10
2017-10-18T00:34:34.060Z,38.37
2017-10-18T00:37:03.460Z,36.97
2017-10-18T00:39:32.690Z,35.17
2017-10-18T00:42:02.710Z,43.70
2017-10-18T00:44:31.921Z,39.73
2017-10-18T00:47:01.950Z,33.03
2017-10-18T00:49:32.048Z,34.57
2017-10-18T00:52:02.034Z,36.20
2017-10-18T00:54:32.764Z,35.97
2017-10-18T00:57:01.973Z,34.27
2017-10-18T00:59:31.188Z,38.40
2017-10-18T01:02:01.209Z,37.83
2017-10-18T01:04:31.242Z,35.30
2017-10-18T01:07:00.461Z,40.00
2017-10-18T01:09:29.690Z,36.13
2017-10-18T01:11:58.923Z,40.13
2017-10-18T01:14:29.038Z,41.80
2017-10-18T01:16:59.019Z,36.00
2017-10-18T01:19:28.224Z,35.87
2017-10-18T01:21:57.500Z,33.33
2017-10-18T01:24:26.807Z,40.47
2017-10-18T01:26:56.044Z,40.60
2017-10-18T01:29:25.999Z,34.03
2017-10-18T01:31:55.232Z,38.17
2017-10-18T01:34:24.439Z,35.83
2017-10-18T01:36:53.789Z,35.00
2017-10-18T01:39:23.015Z,30.33
2017-10-18T01:41:52.332Z,34.43
2017-10-18T01:44:21.617Z,37.27
2017-10-18T01:46:50.815Z,39.87
2017-10-18T01:49:20.048Z,39.70
2017-10-18T01:51:50.019Z,34.23
2017-10-18T01:54:19.253Z,37.53
2017-10-18T01:56:48.456Z,42.77
2017-10-18T01:59:18.452Z,45.00
2017-10-18T02:01:47.665Z,50.43
2017-10-18T02:04:17.659Z,40.10
2017-10-18T02:06:46.869Z,43.27
2017-10-18T02:09:16.088Z,46.83
2017-10-18T02:11:46.059Z,42.03
2017-10-18T02:14:15.283Z,41.27
2017-10-18T02:16:44.484Z,40.80
2017-10-18T02:19:14.475Z,39.70
2017-10-18T02:21:45.189Z,38.63
2017-10-18T02:24:14.415Z,42.50
2017-10-18T02:26:43.620Z,32.57
2017-10-18T02:29:12.848Z,36.23
2017-10-18T02:31:42.099Z,37.47
2017-10-18T02:34:11.308Z,38.43
2017-10-18T02:36:40.533Z,40.20
2017-10-18T02:39:10.548Z,42.50
2017-10-18T02:41:40.517Z,38.20
2017-10-18T02:44:09.792Z,40.03
2017-10-18T02:46:39.007Z,33.10
2017-10-18T02:49:08.377Z,37.70
2017-10-18T02:51:37.767Z,40.60
2017-10-18T02:54:06.985Z,34.40
2017-10-18T02:56:36.232Z,38.57
2017-10-18T02:59:05.471Z,35.53
2017-10-18T03:01:34.726Z,41.83
2017-10-18T03:04:03.943Z,36.17
2017-10-18T03:06:33.932Z,34.00
2017-10-18T03:09:03.129Z,37.17
2017-10-18T03:11:32.368Z,36.67
2017-10-18T03:14:01.573Z,33.70
2017-10-18T03:16:31.013Z,34.20
2017-10-18T03:19:00.214Z,34.27
2017-10-18T03:21:29.432Z,34.17
2017-10-18T03:24:00.262Z,36.00
2017-10-18T03:26:29.587Z,35.30
2017-10-18T03:28:59.615Z,33.27
2017-10-18T03:31:28.848Z,35.47
2017-10-18T03:33:58.095Z,39.23
2017-10-18T03:36:28.124Z,29.63
2017-10-18T03:38:58.158Z,35.97
2017-10-18T03:41:27.363Z,30.93
2017-10-18T03:43:56.600Z,32.30
2017-10-18T03:46:25.815Z,31.93
2017-10-18T03:48:55.053Z,33.63
2017-10-18T03:51:24.258Z,32.00
2017-10-18T03:53:53.799Z,32.73
2017-10-18T03:56:23.007Z,28.00
2017-10-18T03:58:52.217Z,34.87
2017-10-18T04:01:22.307Z,30.23
2017-10-18T04:03:51.636Z,35.50
2017-10-18T04:06:21.643Z,32.50
2017-10-18T04:08:50.871Z,30.70
2017-10-18T04:11:20.688Z,29.90
2017-10-18T04:13:49.897Z,31.63
2017-10-18T04:16:19.123Z,32.93
2017-10-18T04:18:48.330Z,33.97
2017-10-18T04:21:17.564Z,30.20
2017-10-18T04:23:46.771Z,26.97
2017-10-18T04:26:15.972Z,33.20
2017-10-18T04:28:45.206Z,30.70
2017-10-18T04:31:14.413Z,29.53
2017-10-18T04:33:43.630Z,31.47
2017-10-18T04:36:12.859Z,31.53
2017-10-18T04:38:42.100Z,31.73
2017-10-18T04:41:11.446Z,35.47
2017-10-18T04:43:40.687Z,30.30
2017-10-18T04:46:10.184Z,27.57
2017-10-18T04:48:39.507Z,33.90
2017-10-18T04:51:08.714Z,32.97
2017-10-18T04:53:37.954Z,37.83
2017-10-18T04:56:07.167Z,29.40
2017-10-18T04:58:36.415Z,32.17
2017-10-18T05:01:06.528Z,30.93
2017-10-18T05:03:36.552Z,32.10
2017-10-18T05:06:05.778Z,33.30
2017-10-18T05:08:35.009Z,37.10
2017-10-18T05:11:04.259Z,34.27
2017-10-18T05:13:34.219Z,31.27
2017-10-18T05:16:03.447Z,31.33
2017-10-18T05:18:34.163Z,38.97
2017-10-18T05:21:03.401Z,31.67
2017-10-18T05:23:33.466Z,32.37
2017-10-18T05:26:02.747Z,32.50
2017-10-18T05:28:31.986Z,33.70
2017-10-18T05:31:01.217Z,31.73
2017-10-18T05:33:31.363Z,28.23
2017-10-18T05:36:00.591Z,25.33
2017-10-18T05:38:29.954Z,31.30
2017-10-18T05:40:59.196Z,31.00
2017-10-18T05:43:28.432Z,29.00
2017-10-18T05:45:58.415Z,31.50
2017-10-18T05:48:27.666Z,30.00
2017-10-18T05:50:56.889Z,34.50
2017-10-18T05:53:26.099Z,34.87
2017-10-18T05:55:55.412Z,57.67
2017-10-18T05:58:24.620Z,68.03
2017-10-18T06:00:53.846Z,47.03
2017-10-18T06:03:23.066Z,37.73
2017-10-18T06:05:58.119Z,91.07
2017-10-18T06:08:27.324Z,108.13
2017-10-18T06:10:56.567Z,118.67
2017-10-18T06:13:26.551Z,44.23
2017-10-18T06:15:55.847Z,40.33
2017-10-18T06:18:26.071Z,83.57
2017-10-18T06:20:55.319Z,123.40
2017-10-18T06:23:24.566Z,82.60
2017-10-18T06:25:53.791Z,101.83
2017-10-18T06:28:23.988Z,162.23
2017-10-18T06:30:53.475Z,120.30
2017-10-18T06:33:22.726Z,322.53
2017-10-18T06:35:52.692Z,278.87
2017-10-18T06:38:21.934Z,224.60
2017-10-18T06:40:51.895Z,249.77
2017-10-18T06:43:21.140Z,266.17
2017-10-18T06:45:50.347Z,150.27
2017-10-18T06:48:20.335Z,84.70
2017-10-18T06:50:49.583Z,190.30
2017-10-18T06:53:19.535Z,90.90
2017-10-18T06:55:48.783Z,175.83
2017-10-18T06:58:18.042Z,170.33
2017-10-18T07:00:48.811Z,114.67
2017-10-18T07:03:18.025Z,133.73
2017-10-18T07:05:47.265Z,88.20
2017-10-18T07:08:16.480Z,113.83
2017-10-18T07:10:46.476Z,95.20
2017-10-18T07:13:15.701Z,97.37
2017-10-18T07:15:45.862Z,115.47
2017-10-18T07:18:15.061Z,125.27
2017-10-18T07:20:44.303Z,85.27
2017-10-18T07:23:13.531Z,64.50
2017-10-18T07:25:43.552Z,37.17
2017-10-18T07:28:12.784Z,70.53
2017-10-18T07:30:42.018Z,45.00
2017-10-18T07:33:11.236Z,52.73
2017-10-18T07:35:41.226Z,36.37
2017-10-18T07:38:11.959Z,32.53
2017-10-18T07:40:41.170Z,30.30
2017-10-18T07:43:11.167Z,31.90
2017-10-18T07:45:40.381Z,30.00
2017-10-18T07:48:10.364Z,31.30
2017-10-18T07:50:39.732Z,31.80
2017-10-18T07:53:08.983Z,28.70
2017-10-18T07:55:38.939Z,32.57
2017-10-18T07:58:08.287Z,31.30
2017-10-18T08:00:37.755Z,29.47
2017-10-18T08:03:07.847Z,30.67
2017-10-18T08:05:37.815Z,36.97
2017-10-18T08:08:07.038Z,36.73
2017-10-18T08:10:36.306Z,38.40
2017-10-18T08:13:05.538Z,44.33
2017-10-18T08:15:34.776Z,76.80
2017-10-18T08:18:04.179Z,44.53
2017-10-18T08:20:33.427Z,119.73
2017-10-18T08:23:02.651Z,54.53
2017-10-18T08:25:32.071Z,89.83
2017-10-18T08:28:01.284Z,39.10
2017-10-18T08:30:30.527Z,55.27
2017-10-18T08:33:00.584Z,43.57
2017-10-18T08:35:29.819Z,75.53
2017-10-18T08:37:59.156Z,52.07
2017-10-18T08:40:29.186Z,43.00
2017-10-18T08:42:58.437Z,44.70
2017-10-18T08:45:27.677Z,34.87
2017-10-18T08:47:56.935Z,35.10
2017-10-18T08:50:26.139Z,34.37
2017-10-18T08:52:55.366Z,33.47
2017-10-18T08:55:25.349Z,31.57
2017-10-18T08:57:56.093Z,28.73
2017-10-18T09:00:25.294Z,30.77
2017-10-18T09:02:54.807Z,29.07
2017-10-18T09:05:24.788Z,29.40
2017-10-18T09:07:54.060Z,29.67
2017-10-18T09:10:23.275Z,28.27
2017-10-18T09:12:52.531Z,28.20
2017-10-18T09:15:22.520Z,28.23
2017-10-18T09:17:51.786Z,26.47
2017-10-18T09:20:21.048Z,29.00
2017-10-18T09:22:51.034Z,29.20
2017-10-18T09:25:20.268Z,29.23
2017-10-18T09:27:49.479Z,27.53
2017-10-18T09:30:18.690Z,29.23
2017-10-18T09:32:47.919Z,36.80
2017-10-18T09:35:17.170Z,28.73
2017-10-18T09:37:46.391Z,32.10
2017-10-18T09:40:15.597Z,33.10
2017-10-18T09:42:44.844Z,28.03
2017-10-18T09:45:14.060Z,33.47
2017-10-18T09:47:43.292Z,31.80
2017-10-18T09:50:12.508Z,28.37
2017-10-18T09:52:41.840Z,29.27
2017-10-18T09:55:11.048Z,30.60
2017-10-18T09:57:40.300Z,30.33
2017-10-18T10:00:09.536Z,26.87
2017-10-18T10:02:38.776Z,26.77
2017-10-18T10:05:07.992Z,28.77
2017-10-18T10:07:37.275Z,27.83
2017-10-18T10:10:06.589Z,27.07
2017-10-18T10:12:36.047Z,28.20
2017-10-18T10:15:05.283Z,27.83
2017-10-18T10:17:34.499Z,28.97
2017-10-18T10:20:03.934Z,26.53
2017-10-18T10:22:33.150Z,26.80
2017-10-18T10:25:02.385Z,26.80
2017-10-18T10:27:31.599Z,27.07
2017-10-18T10:30:00.812Z,25.93
2017-10-18T10:32:30.797Z,25.40
2017-10-18T10:35:00.006Z,24.97
2017-10-18T10:37:29.271Z,26.63
2017-10-18T10:39:58.484Z,24.17
2017-10-18T10:42:28.514Z,25.30
2017-10-18T10:44:57.745Z,27.67
2017-10-18T10:47:27.752Z,26.73
2017-10-18T10:49:57.901Z,25.23
2017-10-18T10:52:27.132Z,25.23
2017-10-18T10:54:56.354Z,27.33
2017-10-18T10:57:26.359Z,26.53
2017-10-18T10:59:55.587Z,24.77
2017-10-18T11:02:24.800Z,24.33
2017-10-18T11:04:54.022Z,26.63
2017-10-18T11:07:23.348Z,26.10
2017-10-18T11:09:52.581Z,23.83
2017-10-18T11:12:22.112Z,26.20
2017-10-18T11:14:51.349Z,27.37
2017-10-18T11:17:20.556Z,24.57
2017-10-18T11:19:50.792Z,23.03
2017-10-18T11:22:20.895Z,25.53
2017-10-18T11:24:50.280Z,23.53
2017-10-18T11:27:19.535Z,22.50
2017-10-18T11:29:48.843Z,24.77
2017-10-18T11:32:18.088Z,26.63
2017-10-18T11:34:48.919Z,20.57
2017-10-18T11:37:18.415Z,23.57
2017-10-18T11:39:47.627Z,23.10
2017-10-18T11:42:16.876Z,26.20
2017-10-18T11:44:46.111Z,21.53
2017-10-18T11:47:15.502Z,22.57
2017-10-18T11:49:44.742Z,25.67
2017-10-18T11:52:14.744Z,23.60
2017-10-18T11:54:44.736Z,24.80
2017-10-18T11:57:14.035Z,24.73
2017-10-18T11:59:43.304Z,28.00
2017-10-18T12:02:12.542Z,22.97
2017-10-18T12:04:41.729Z,22.40
2017-10-18T12:07:10.964Z,22.80
2017-10-18T12:09:40.944Z,20.80
2017-10-18T12:12:10.358Z,26.40
2017-10-18T12:14:41.132Z,21.53
2017-10-18T12:17:10.377Z,21.00
2017-10-18T12:19:39.672Z,21.43
2017-10-18T12:22:08.899Z,21.43
2017-10-18T12:24:38.132Z,22.20
2017-10-18T12:27:07.436Z,26.93
2017-10-18T12:29:36.669Z,19.60
2017-10-18T12:32:05.945Z,20.43
2017-10-18T12:34:35.172Z,20.73
2017-10-18T12:37:04.463Z,21.07
2017-10-18T12:39:33.692Z,20.50
2017-10-18T12:42:02.953Z,22.67
2017-10-18T12:44:32.448Z,20.00
2017-10-18T12:47:02.356Z,17.53
2017-10-18T12:49:31.591Z,17.37
2017-10-18T12:52:01.096Z,19.70
2017-10-18T12:54:30.300Z,17.30
2017-10-18T12:57:00.300Z,15.90
2017-10-18T12:59:29.495Z,18.33
2017-10-18T13:01:58.738Z,18.00
2017-10-18T13:04:27.975Z,18.03
2017-10-18T13:06:57.208Z,16.47
2017-10-18T13:09:27.200Z,16.17
2017-10-18T13:11:56.415Z,17.87
2017-10-18T13:14:25.835Z,18.17
2017-10-18T13:16:55.072Z,15.67
2017-10-18T13:19:24.299Z,16.10
2017-10-18T13:21:53.560Z,16.50
2017-10-18T13:24:22.773Z,16.30
2017-10-18T13:26:52.005Z,14.37
2017-10-18T13:29:21.251Z,18.77
2017-10-18T13:31:50.478Z,16.07
2017-10-18T13:34:19.724Z,15.87
2017-10-18T13:36:49.712Z,17.23
2017-10-18T13:39:18.948Z,15.13
2017-10-18T13:41:48.164Z,16.00
2017-10-18T13:44:17.417Z,17.87
2017-10-18T13:46:46.929Z,14.83
2017-10-18T13:49:16.897Z,14.97
2017-10-18T13:51:46.128Z,16.83
2017-10-18T13:54:16.939Z,14.43
2017-10-18T13:56:46.243Z,15.83
2017-10-18T13:59:15.477Z,15.27
2017-10-18T14:01:45.456Z,19.03
2017-10-18T14:04:14.679Z,15.60
2017-10-18T14:06:44.651Z,14.83
2017-10-18T14:09:13.906Z,16.13
2017-10-18T14:11:43.886Z,14.53
2017-10-18T14:14:13.111Z,14.73
2017-10-18T14:16:43.112Z,16.83
2017-10-18T14:19:12.333Z,15.00
2017-10-18T14:21:42.342Z,13.00
2017-10-18T14:24:11.556Z,14.73
2017-10-18T14:26:41.545Z,16.40
2017-10-18T14:29:10.736Z,15.77
2017-10-18T14:31:40.242Z,14.87
2017-10-18T14:34:09.464Z,14.33
2017-10-18T14:36:39.641Z,15.83
2017-10-18T14:39:08.865Z,21.93
2017-10-18T14:41:38.890Z,16.13
2017-10-18T14:44:08.190Z,15.90
2017-10-18T14:46:38.231Z,13.97
2017-10-18T14:49:07.464Z,14.33
2017-10-18T14:51:36.876Z,15.10
2017-10-18T14:54:07.624Z,17.90
2017-10-18T14:56:36.847Z,16.13
2017-10-18T14:59:06.847Z,19.83
2017-10-18T15:01:36.840Z,15.40
2017-10-18T15:04:06.073Z,14.97
2017-10-18T15:06:35.299Z,17.60
2017-10-18T15:09:04.538Z,15.63
2017-10-18T15:11:33.759Z,16.07
2017-10-18T15:14:03.775Z,16.77
2017-10-18T15:16:33.852Z,14.90
2017-10-18T15:19:03.108Z,13.53
2017-10-18T15:21:33.211Z,14.40
2017-10-18T15:24:03.187Z,16.20
2017-10-18T15:26:32.445Z,16.93
2017-10-18T15:29:01.706Z,15.20
2017-10-18T15:31:30.937Z,12.93
2017-10-18T15:34:00.191Z,13.57
2017-10-18T15:36:29.416Z,13.93
2017-10-18T15:38:58.619Z,12.80
2017-10-18T15:41:27.879Z,15.23
2017-10-18T15:43:57.119Z,13.80
2017-10-18T15:46:27.190Z,14.40
2017-10-18T15:48:56.460Z,10.53
2017-10-18T15:51:25.770Z,12.93
2017-10-18T15:53:55.064Z,15.67
2017-10-18T15:56:24.303Z,17.53
2017-10-18T15:58:53.572Z,16.07
2017-10-18T16:01:22.805Z,13.03
2017-10-18T16:03:52.034Z,12.90
2017-10-18T16:06:21.282Z,10.50
2017-10-18T16:08:50.517Z,11.20
2017-10-18T16:11:19.747Z,10.57
2017-10-18T16:13:49.099Z,10.77
2017-10-18T16:16:18.339Z,13.73
2017-10-18T16:18:47.556Z,18.37
2017-10-18T16:21:16.768Z,17.33
2017-10-18T16:23:46.007Z,14.30
2017-10-18T16:26:15.984Z,13.27
2017-10-18T16:28:45.217Z,11.57
2017-10-18T16:31:15.211Z,12.00
2017-10-18T16:33:44.452Z,13.30
2017-10-18T16:36:14.490Z,12.07
2017-10-18T16:38:43.724Z,11.83
2017-10-18T16:41:13.000Z,19.37
2017-10-18T16:43:43.171Z,22.83
2017-10-18T16:46:13.132Z,16.20
2017-10-18T16:48:42.389Z,11.60
2017-10-18T16:51:12.381Z,12.93
2017-10-18T16:53:41.599Z,14.97
2017-10-18T16:56:11.625Z,13.90
2017-10-18T16:58:41.931Z,13.90
2017-10-18T17:01:12.099Z,14.90
2017-10-18T17:03:41.297Z,13.33
2017-10-18T17:06:10.541Z,15.67
2017-10-18T17:08:40.559Z,17.47
2017-10-18T17:11:10.691Z,15.90
2017-10-18T17:13:40.771Z,15.87
2017-10-18T17:16:10.123Z,15.10
2017-10-18T17:18:39.377Z,14.90
2017-10-18T17:21:08.605Z,15.97
2017-10-18T17:23:38.632Z,13.90
2017-10-18T17:26:08.611Z,14.90
2017-10-18T17:28:37.879Z,13.40
2017-10-18T17:31:07.098Z,14.13
2017-10-18T17:33:36.403Z,15.93
2017-10-18T17:36:05.804Z,15.37
2017-10-18T17:38:35.023Z,16.53
2017-10-18T17:41:05.146Z,15.77
2017-10-18T17:43:35.151Z,20.47
2017-10-18T17:46:04.432Z,13.03
2017-10-18T17:48:33.665Z,13.97
2017-10-18T17:51:03.698Z,16.23
2017-10-18T17:53:32.983Z,13.27
2017-10-18T17:56:03.011Z,14.60
2017-10-18T17:58:32.224Z,13.13
2017-10-18T18:01:01.561Z,13.47
2017-10-18T18:03:30.784Z,16.80
2017-10-18T18:06:00.772Z,14.70
2017-10-18T18:08:30.038Z,12.50
2017-10-18T18:10:59.384Z,16.50
2017-10-18T18:13:28.636Z,15.60
2017-10-18T18:15:57.968Z,13.23
2017-10-18T18:18:27.239Z,12.03
2017-10-18T18:20:56.435Z,12.10
2017-10-18T18:23:25.723Z,13.03
2017-10-18T18:25:54.935Z,15.63
2017-10-18T18:28:24.187Z,12.47
2017-10-18T18:30:54.535Z,13.17
2017-10-18T18:33:24.538Z,13.00
2017-10-18T18:35:54.519Z,15.23
2017-10-18T18:38:24.087Z,15.03
2017-10-18T18:40:53.338Z,12.83
2017-10-18T18:43:22.548Z,12.57
2017-10-18T18:45:51.896Z,14.43
2017-10-18T18:48:21.151Z,12.67
2017-10-18T18:50:51.143Z,23.33
2017-10-18T18:53:20.344Z,12.27
2017-10-18T18:55:49.601Z,14.60
2017-10-18T18:58:18.839Z,11.73
2017-10-18T19:00:48.173Z,12.47
2017-10-18T19:03:17.383Z,11.67
2017-10-18T19:05:46.617Z,12.70
2017-10-18T19:08:15.880Z,13.57
2017-10-18T19:10:45.205Z,11.93
2017-10-18T19:13:14.478Z,12.30
2017-10-18T19:15:43.703Z,13.83
2017-10-18T19:18:12.956Z,17.67
2017-10-18T19:20:42.944Z,10.80
2017-10-18T19:23:12.217Z,12.63
2017-10-18T19:25:41.617Z,10.73
2017-10-18T19:28:10.866Z,11.43
2017-10-18T19:30:40.089Z,11.60
2017-10-18T19:33:09.356Z,13.63
2017-10-18T19:35:38.576Z,13.00
2017-10-18T19:38:07.803Z,11.13
2017-10-18T19:40:37.056Z,13.93
2017-10-18T19:43:07.036Z,12.77
2017-10-18T19:45:36.408Z,11.90
2017-10-18T19:48:05.634Z,12.20
2017-10-18T19:50:34.908Z,12.57
2017-10-18T19:53:04.143Z,11.80
2017-10-18T19:55:33.380Z,10.70
2017-10-18T19:58:02.611Z,12.07
2017-10-18T20:00:32.010Z,12.90
2017-10-18T20:03:01.228Z,11.83
2017-10-18T20:05:30.479Z,14.93
2017-10-18T20:08:00.481Z,14.60
2017-10-18T20:10:29.820Z,9.93
2017-10-18T20:12:59.063Z,12.80
2017-10-18T20:15:28.306Z,13.10
2017-10-18T20:17:57.713Z,11.83
2017-10-18T20:20:26.915Z,10.20
2017-10-18T20:22:56.160Z,13.90
2017-10-18T20:25:26.155Z,14.70
2017-10-18T20:27:55.591Z,13.40
2017-10-18T20:30:25.645Z,10.57
2017-10-18T20:32:54.889Z,11.90
2017-10-18T20:35:24.115Z,11.53
2017-10-18T20:37:53.362Z,13.23
2017-10-18T20:40:22.607Z,11.40
2017-10-18T20:42:51.943Z,10.93
2017-10-18T20:45:21.175Z,12.60
2017-10-18T20:47:50.421Z,16.73
2017-10-18T20:50:19.709Z,14.77
2017-10-18T20:52:49.721Z,13.40
2017-10-18T20:55:18.983Z,10.67
2017-10-18T20:57:48.322Z,12.57
2017-10-18T21:00:17.686Z,12.40
2017-10-18T21:02:46.931Z,12.17
2017-10-18T21:05:16.186Z,11.40
2017-10-18T21:07:45.380Z,10.63
2017-10-18T21:10:14.599Z,12.00
2017-10-18T21:12:44.604Z,10.77
2017-10-18T21:15:13.816Z,15.27
2017-10-18T21:17:43.869Z,11.33
2017-10-18T21:20:13.119Z,13.83
2017-10-18T21:22:42.499Z,14.37
2017-10-18T21:25:11.728Z,15.33
2017-10-18T21:27:41.727Z,11.70
2017-10-18T21:30:10.954Z,11.97
2017-10-18T21:32:40.940Z,11.90
2017-10-18T21:35:10.160Z,13.77
2017-10-18T21:37:40.153Z,12.03
2017-10-18T21:40:09.375Z,20.47
2017-10-18T21:42:39.372Z,11.80
2017-10-18T21:45:08.625Z,13.30
2017-10-18T21:47:37.824Z,12.40
2017-10-18T21:50:07.067Z,12.23
2017-10-18T21:52:37.043Z,12.60
2017-10-18T21:55:06.268Z,11.97
2017-10-18T21:57:35.486Z,13.97
2017-10-18T22:00:04.958Z,15.40
2017-10-18T22:02:34.183Z,14.40
2017-10-18T22:05:04.216Z,12.70
2017-10-18T22:07:33.436Z,14.93
2017-10-18T22:10:02.651Z,13.13
2017-10-18T22:12:31.876Z,12.07
2017-10-18T22:15:01.080Z,15.90
2017-10-18T22:17:31.097Z,13.10
2017-10-18T22:20:00.590Z,13.87
2017-10-18T22:22:29.827Z,15.10
2017-10-18T22:24:59.053Z,19.30
2017-10-18T22:27:28.284Z,17.63
2017-10-18T22:30:00.535Z,13.50
2017-10-18T22:32:50.624Z,13.80
2017-10-18T22:40:47.602Z,14.80
2017-10-18T22:43:16.814Z,13.63
2017-10-18T22:45:46.076Z,12.70
2017-10-18T22:48:15.273Z,15.83
2017-10-18T22:50:44.485Z,12.83
2017-10-18T22:53:13.726Z,14.40
2017-10-18T22:55:42.928Z,15.00
2017-10-18T22:58:12.912Z,14.80
2017-10-18T23:00:42.199Z,14.90
2017-10-18T23:03:11.619Z,15.70
2017-10-18T23:05:40.900Z,16.03
2017-10-18T23:08:10.248Z,15.37
2017-10-18T23:10:40.252Z,15.07
2017-10-18T23:13:10.961Z,14.63
2017-10-18T23:15:40.189Z,17.00
2017-10-18T23:18:10.189Z,19.67
2017-10-18T23:20:39.475Z,19.23
2017-10-18T23:23:08.701Z,13.57
2017-10-18T23:25:38.689Z,16.37
2017-10-18T23:28:07.904Z,20.60
2017-10-18T23:30:37.253Z,17.33
2017-10-18T23:33:07.321Z,15.70
2017-10-18T23:35:36.567Z,16.13
2017-10-18T23:38:05.798Z,13.53
2017-10-18T23:40:35.031Z,15.20
2017-10-18T23:43:05.020Z,14.77
2017-10-18T23:45:34.281Z,16.93
2017-10-18T23:48:03.528Z,16.60
2017-10-18T23:50:32.729Z,16.23
2017-10-18T23:53:01.957Z,15.73
2017-10-18T23:55:31.204Z,14.80
2017-10-18T23:58:00.414Z,13.97
